Time;durP1;ratioP1;P1;durP2;ratioP2;P2;SDS_P1;SDS_P2;PMS_P1;PMS_P2;Temp;Humidity;BMP_temperature;BMP_pressure;BME280_temperature;BME280_humidity;BME280_pressure;Samples;Min_cycle;Max_cycle;Signal;HPM_P1;HPM_P2
2023/12/26 00:01:29;;;;;;;296.20;279.38;;;12.30;99.90;;;;;;5035014;28;20052;-74
2023/12/26 00:03:55;;;;;;;290.65;274.27;;;12.30;99.90;;;;;;5034630;28;20036;-73
2023/12/26 00:06:21;;;;;;;340.42;320.88;;;12.40;99.90;;;;;;5046568;28;20041;-73
2023/12/26 00:08:48;;;;;;;346.05;325.90;;;12.40;99.90;;;;;;5039855;28;20383;-74
2023/12/26 00:11:15;;;;;;;294.98;278.38;;;12.40;99.90;;;;;;5033967;28;20034;-73
2023/12/26 00:13:41;;;;;;;383.27;360.92;;;12.40;99.90;;;;;;5035917;28;20037;-74
2023/12/26 00:16:07;;;;;;;413.17;388.55;;;12.30;99.90;;;;;;5035839;28;20407;-74
2023/12/26 00:18:33;;;;;;;401.30;377.33;;;12.30;99.90;;;;;;5049447;28;20048;-73
2023/12/26 00:20:59;;;;;;;398.55;374.98;;;12.30;99.90;;;;;;5044966;28;20483;-75
2023/12/26 00:23:26;;;;;;;373.42;351.80;;;12.40;99.90;;;;;;5033467;28;20030;-73
2023/12/26 00:25:52;;;;;;;329.23;310.00;;;12.30;99.90;;;;;;5033066;28;20501;-72
2023/12/26 00:28:19;;;;;;;310.13;292.70;;;12.30;99.90;;;;;;5036181;28;20026;-74
2023/12/26 00:30:46;;;;;;;211.30;199.25;;;12.30;99.90;;;;;;5034404;28;20033;-74
2023/12/26 00:33:12;;;;;;;138.30;129.73;;;12.30;99.90;;;;;;5031547;28;20041;-69
2023/12/26 00:35:38;;;;;;;132.85;124.15;;;12.30;99.90;;;;;;5034593;28;20030;-74
2023/12/26 00:38:04;;;;;;;232.73;219.48;;;12.30;99.90;;;;;;5042209;28;20025;-74
2023/12/26 00:40:30;;;;;;;280.63;264.98;;;12.30;99.90;;;;;;5033152;28;20044;-74
2023/12/26 00:42:57;;;;;;;276.75;260.92;;;12.20;99.90;;;;;;5043285;28;20025;-74
2023/12/26 00:45:23;;;;;;;339.08;318.70;;;12.20;99.90;;;;;;5047322;28;20049;-74
2023/12/26 00:47:49;;;;;;;369.30;347.08;;;12.20;99.90;;;;;;5035950;28;20021;-74
2023/12/26 00:50:16;;;;;;;349.65;328.70;;;12.20;99.90;;;;;;5033154;28;20027;-74
2023/12/26 00:52:43;;;;;;;348.30;327.63;;;12.20;99.90;;;;;;5033257;28;20052;-74
2023/12/26 00:55:09;;;;;;;342.95;322.45;;;12.20;99.90;;;;;;5033380;28;20029;-74
2023/12/26 00:57:35;;;;;;;340.67;320.42;;;12.20;99.90;;;;;;5043077;28;20509;-74
2023/12/26 01:00:04;;;;;;;312.92;294.20;;;12.20;99.90;;;;;;5048447;28;20118;-74
2023/12/26 01:02:30;;;;;;;281.35;264.88;;;12.20;99.90;;;;;;5044224;28;20040;-74
2023/12/26 01:04:56;;;;;;;236.63;223.05;;;12.30;99.90;;;;;;5033459;28;20025;-74
2023/12/26 01:07:22;;;;;;;277.30;260.98;;;12.30;99.90;;;;;;5034229;28;20041;-74
2023/12/26 01:09:48;;;;;;;255.60;240.85;;;12.20;99.90;;;;;;5045736;28;20375;-74
2023/12/26 01:12:15;;;;;;;196.57;184.77;;;12.10;99.90;;;;;;5039161;28;20044;-73
2023/12/26 01:14:41;;;;;;;257.17;241.98;;;12.10;99.90;;;;;;5036699;28;20074;-74
2023/12/26 01:17:07;;;;;;;167.23;157.80;;;12.10;99.90;;;;;;5035241;28;20048;-73
2023/12/26 01:19:33;;;;;;;183.93;172.75;;;12.10;99.90;;;;;;5031907;28;20379;-73
2023/12/26 01:21:59;;;;;;;219.50;206.73;;;12.10;99.90;;;;;;5041359;28;20037;-73
2023/12/26 01:24:25;;;;;;;212.57;200.05;;;12.10;99.90;;;;;;5039762;28;20025;-74
2023/12/26 01:26:51;;;;;;;241.05;227.23;;;12.10;99.90;;;;;;5040906;28;20639;-73
2023/12/26 01:29:18;;;;;;;229.45;216.45;;;12.10;99.90;;;;;;5040550;28;20029;-73
2023/12/26 01:31:44;;;;;;;230.88;217.60;;;12.00;99.90;;;;;;5031932;28;20033;-73
2023/12/26 01:34:10;;;;;;;256.95;242.13;;;12.00;99.90;;;;;;5032523;28;20034;-73
2023/12/26 01:36:36;;;;;;;257.58;241.68;;;12.00;99.90;;;;;;5035493;28;20041;-73
2023/12/26 01:39:02;;;;;;;230.73;217.23;;;12.00;99.90;;;;;;5038638;28;20021;-73
2023/12/26 01:41:28;;;;;;;244.75;230.88;;;12.00;99.90;;;;;;5041529;28;20038;-74
2023/12/26 01:43:54;;;;;;;225.35;212.10;;;12.00;99.90;;;;;;5040409;28;20513;-73
2023/12/26 01:46:21;;;;;;;207.52;195.55;;;12.00;99.90;;;;;;5032248;28;20045;-73
2023/12/26 01:48:49;;;;;;;218.10;205.30;;;12.00;99.90;;;;;;5045652;28;20036;-73
2023/12/26 01:51:15;;;;;;;241.90;228.10;;;12.00;99.90;;;;;;5037271;28;20033;-73
2023/12/26 01:53:42;;;;;;;203.88;191.98;;;12.00;99.90;;;;;;5031566;28;20040;-74
2023/12/26 01:56:11;;;;;;;221.93;209.10;;;12.00;99.90;;;;;;5033216;28;20034;-73
2023/12/26 01:58:37;;;;;;;210.35;198.40;;;12.00;99.90;;;;;;5038030;28;20025;-73
2023/12/26 02:01:04;;;;;;;135.65;127.85;;;11.90;99.90;;;;;;5030266;28;20045;-73
2023/12/26 02:03:30;;;;;;;119.88;112.43;;;11.90;99.90;;;;;;5040869;28;20037;-74
2023/12/26 02:05:57;;;;;;;129.80;121.32;;;11.80;99.90;;;;;;5046071;28;20405;-72
2023/12/26 02:08:23;;;;;;;139.38;130.57;;;11.80;99.90;;;;;;5041652;28;20033;-73
2023/12/26 02:10:50;;;;;;;191.13;180.00;;;11.80;99.90;;;;;;5035919;28;20029;-73
2023/12/26 02:13:16;;;;;;;159.35;149.88;;;11.80;99.90;;;;;;5045641;28;20037;-72
2023/12/26 02:15:42;;;;;;;206.23;194.25;;;11.80;99.90;;;;;;5030924;28;20030;-73
2023/12/26 02:18:08;;;;;;;198.75;187.38;;;11.80;99.90;;;;;;5037651;28;20052;-73
2023/12/26 02:20:34;;;;;;;181.80;171.00;;;11.80;99.90;;;;;;5031894;28;20056;-73
2023/12/26 02:23:00;;;;;;;179.90;169.20;;;11.80;99.90;;;;;;5046354;28;20029;-73
2023/12/26 02:25:27;;;;;;;160.23;150.45;;;11.70;99.90;;;;;;5033966;28;20037;-73
2023/12/26 02:27:53;;;;;;;185.85;174.90;;;11.70;99.90;;;;;;5045098;28;20467;-71
2023/12/26 02:30:19;;;;;;;202.45;190.13;;;11.80;99.90;;;;;;5037387;28;20033;-73
2023/12/26 02:32:46;;;;;;;227.70;213.80;;;11.80;99.90;;;;;;5030936;28;20034;-72
2023/12/26 02:35:12;;;;;;;214.70;200.82;;;11.80;99.90;;;;;;5047992;28;20029;-72
2023/12/26 02:37:38;;;;;;;223.50;209.38;;;11.70;99.90;;;;;;4999490;28;20052;-73
2023/12/26 02:40:05;;;;;;;238.98;224.55;;;11.80;99.90;;;;;;5016270;28;20033;-73
2023/12/26 02:42:31;;;;;;;210.75;197.63;;;11.70;99.90;;;;;;5032779;28;20052;-73
2023/12/26 02:44:58;;;;;;;211.55;198.90;;;11.70;99.90;;;;;;5049184;28;20041;-73
2023/12/26 02:47:24;;;;;;;203.38;190.57;;;11.80;99.90;;;;;;5040640;28;20040;-73
2023/12/26 02:49:50;;;;;;;240.45;225.90;;;11.70;99.90;;;;;;5034244;28;20022;-73
2023/12/26 02:52:17;;;;;;;191.82;179.88;;;11.70;99.90;;;;;;5034465;28;20490;-72
2023/12/26 02:54:43;;;;;;;199.60;187.40;;;11.70;99.90;;;;;;5045843;28;20056;-73
2023/12/26 02:57:09;;;;;;;206.32;193.52;;;11.80;99.90;;;;;;5035878;28;20097;-73
2023/12/26 02:59:35;;;;;;;195.25;183.25;;;11.80;99.90;;;;;;5046957;28;20088;-73
2023/12/26 03:02:02;;;;;;;218.27;205.32;;;11.80;99.90;;;;;;5029390;28;20060;-73
2023/12/26 03:04:28;;;;;;;201.93;189.93;;;11.70;99.90;;;;;;5037230;28;20037;-72
2023/12/26 03:06:54;;;;;;;198.75;186.90;;;11.70;99.90;;;;;;5036692;28;20033;-73
2023/12/26 03:09:20;;;;;;;185.05;173.70;;;11.70;99.90;;;;;;5035394;28;20426;-72
2023/12/26 03:11:46;;;;;;;156.95;146.65;;;11.70;99.90;;;;;;5032899;28;20391;-73
2023/12/26 03:14:13;;;;;;;183.10;171.70;;;11.80;99.90;;;;;;5045846;28;20060;-73
2023/12/26 03:16:40;;;;;;;176.65;165.80;;;11.70;99.90;;;;;;5035862;28;20099;-73
2023/12/26 03:19:06;;;;;;;170.40;159.43;;;11.70;99.90;;;;;;5041873;28;20068;-73
2023/12/26 03:21:32;;;;;;;180.65;169.80;;;11.70;99.90;;;;;;5030628;28;20427;-73
2023/12/26 03:23:58;;;;;;;173.50;163.13;;;11.70;99.90;;;;;;5031560;28;20100;-73
2023/12/26 03:26:24;;;;;;;158.50;149.07;;;11.70;99.90;;;;;;5042178;28;20040;-72
2023/12/26 03:28:50;;;;;;;180.20;169.40;;;11.60;99.90;;;;;;5037860;28;20029;-73
2023/12/26 03:31:16;;;;;;;174.82;164.07;;;11.60;99.90;;;;;;5035006;28;20464;-73
2023/12/26 03:33:42;;;;;;;183.77;172.32;;;11.70;99.90;;;;;;5049023;28;20043;-73
2023/12/26 03:36:08;;;;;;;176.20;165.45;;;11.70;99.90;;;;;;5046967;28;20376;-73
2023/12/26 03:38:37;;;;;;;154.18;144.13;;;11.70;99.90;;;;;;5031522;28;20049;-72
2023/12/26 03:41:04;;;;;;;167.57;157.63;;;11.70;99.90;;;;;;5033110;28;20065;-73
2023/12/26 03:43:30;;;;;;;177.70;165.18;;;11.60;99.90;;;;;;5032945;28;20077;-73
2023/12/26 03:45:56;;;;;;;161.55;151.85;;;11.70;99.90;;;;;;5033598;28;20041;-72
2023/12/26 03:48:22;;;;;;;164.77;154.45;;;11.70;99.90;;;;;;5044676;28;20033;-73
2023/12/26 03:50:48;;;;;;;167.50;156.73;;;11.60;99.90;;;;;;5041102;28;20391;-73
2023/12/26 03:53:15;;;;;;;167.15;156.50;;;11.70;99.90;;;;;;5031385;28;20025;-72
2023/12/26 03:55:41;;;;;;;173.25;162.43;;;11.70;99.90;;;;;;5031154;28;20605;-73
2023/12/26 03:58:07;;;;;;;191.90;180.68;;;11.70;99.90;;;;;;5035793;28;20101;-73
2023/12/26 04:00:33;;;;;;;204.63;192.60;;;11.70;99.90;;;;;;5035459;28;20052;-72
2023/12/26 04:03:00;;;;;;;207.02;194.82;;;11.70;99.90;;;;;;5040636;28;20044;-73
2023/12/26 04:05:26;;;;;;;205.73;193.35;;;11.70;99.90;;;;;;5049860;28;20021;-73
2023/12/26 04:07:52;;;;;;;185.98;175.10;;;11.70;99.90;;;;;;5035034;28;20029;-73
2023/12/26 04:10:18;;;;;;;192.15;180.40;;;11.70;99.90;;;;;;5043481;28;20471;-73
2023/12/26 04:12:44;;;;;;;162.23;152.55;;;11.80;99.90;;;;;;5038449;28;20032;-73
2023/12/26 04:15:11;;;;;;;170.30;160.27;;;11.80;99.90;;;;;;5044553;28;20044;-73
2023/12/26 04:17:37;;;;;;;148.98;139.60;;;11.80;99.90;;;;;;5034132;28;20037;-73
2023/12/26 04:20:04;;;;;;;157.13;147.63;;;11.80;99.90;;;;;;5044405;28;20032;-72
2023/12/26 04:22:30;;;;;;;155.00;146.07;;;11.80;99.90;;;;;;5044263;28;20048;-73
2023/12/26 04:24:56;;;;;;;155.60;146.18;;;11.80;99.90;;;;;;5050301;28;20055;-73
2023/12/26 04:27:22;;;;;;;170.65;160.18;;;11.80;99.90;;;;;;5044057;28;20407;-74
2023/12/26 04:29:48;;;;;;;182.57;171.13;;;11.80;99.90;;;;;;5034521;28;20028;-73
2023/12/26 04:32:14;;;;;;;195.63;183.70;;;11.70;99.90;;;;;;5039298;28;20034;-73
2023/12/26 04:34:40;;;;;;;223.32;210.63;;;11.70;99.90;;;;;;5052293;28;20040;-73
2023/12/26 04:37:06;;;;;;;226.55;213.65;;;11.70;99.90;;;;;;5034460;28;20425;-73
2023/12/26 04:39:32;;;;;;;226.68;213.20;;;11.60;99.90;;;;;;5049666;28;20060;-73
2023/12/26 04:41:59;;;;;;;220.85;207.45;;;11.60;99.90;;;;;;5048530;28;20052;-73
2023/12/26 04:44:25;;;;;;;203.65;191.82;;;11.60;99.90;;;;;;5040060;28;20045;-73
2023/12/26 04:46:51;;;;;;;223.55;210.40;;;11.60;99.90;;;;;;5037937;28;20033;-73
2023/12/26 04:49:17;;;;;;;238.95;224.95;;;11.70;99.90;;;;;;5050168;28;20029;-73
2023/12/26 04:51:43;;;;;;;237.20;222.80;;;11.60;99.90;;;;;;5035040;28;20471;-73
2023/12/26 04:54:09;;;;;;;247.60;233.50;;;11.60;99.90;;;;;;5047479;28;20033;-73
2023/12/26 04:56:43;;;;;;;222.75;209.73;;;11.60;99.90;;;;;;5036223;28;20037;-72
2023/12/26 04:59:09;;;;;;;229.82;215.77;;;11.70;99.90;;;;;;5034982;28;20022;-73
2023/12/26 05:01:40;;;;;;;277.98;261.77;;;11.60;99.90;;;;;;5041370;28;20050;-73
2023/12/26 05:04:06;;;;;;;217.05;203.82;;;11.60;99.90;;;;;;5039760;28;20022;-73
2023/12/26 05:06:32;;;;;;;194.60;183.65;;;11.70;99.90;;;;;;5040223;28;20060;-72
2023/12/26 05:08:58;;;;;;;172.02;162.57;;;11.70;99.90;;;;;;5040736;28;20036;-73
2023/12/26 05:11:25;;;;;;;219.18;206.75;;;11.70;99.90;;;;;;5035707;28;20368;-73
2023/12/26 05:13:51;;;;;;;243.75;229.65;;;11.70;99.90;;;;;;5041326;28;20403;-73
2023/12/26 05:16:17;;;;;;;269.00;252.75;;;11.60;99.90;;;;;;5042855;28;20041;-74
2023/12/26 05:18:43;;;;;;;287.83;270.25;;;11.70;99.90;;;;;;5047291;28;20026;-73
2023/12/26 05:21:22;;;;;;;263.77;248.05;;;11.60;99.90;;;;;;5044003;28;20037;-73
2023/12/26 05:23:48;;;;;;;266.67;251.35;;;11.70;99.90;;;;;;5038828;28;20041;-73
2023/12/26 05:26:15;;;;;;;252.07;237.23;;;11.80;99.90;;;;;;5040058;28;20033;-73
2023/12/26 05:28:41;;;;;;;282.05;264.50;;;11.70;99.90;;;;;;5034466;28;20041;-73
2023/12/26 05:31:07;;;;;;;272.40;256.48;;;11.80;99.90;;;;;;5046422;28;20056;-73
2023/12/26 05:33:34;;;;;;;223.85;211.27;;;11.80;99.90;;;;;;5043032;28;20044;-73
2023/12/26 05:36:01;;;;;;;230.75;216.35;;;11.80;99.90;;;;;;5030147;28;20044;-72
2023/12/26 05:38:27;;;;;;;221.73;207.70;;;11.90;99.90;;;;;;5042240;28;20033;-72
2023/12/26 05:40:53;;;;;;;259.08;244.15;;;11.80;99.90;;;;;;5036165;28;20042;-73
2023/12/26 05:43:19;;;;;;;224.43;211.00;;;11.80;99.90;;;;;;5047854;28;20503;-72
2023/12/26 05:45:45;;;;;;;200.73;188.50;;;11.70;99.90;;;;;;5031349;28;20048;-74
2023/12/26 05:48:11;;;;;;;214.38;201.40;;;11.70;99.90;;;;;;5041982;28;20039;-73
2023/12/26 05:50:37;;;;;;;254.70;240.05;;;11.70;99.90;;;;;;5035809;28;20040;-73
2023/12/26 05:53:04;;;;;;;281.48;264.40;;;11.60;99.90;;;;;;5039646;28;20601;-73
2023/12/26 05:55:30;;;;;;;285.45;267.95;;;11.70;99.90;;;;;;5048198;28;20395;-73
2023/12/26 05:57:56;;;;;;;257.80;243.23;;;11.60;99.90;;;;;;5037892;28;20048;-72
2023/12/26 06:00:22;;;;;;;244.60;230.57;;;11.60;99.90;;;;;;5042428;28;20037;-73
2023/12/26 06:02:48;;;;;;;225.57;212.07;;;11.60;99.90;;;;;;5034502;28;20399;-72
2023/12/26 06:05:14;;;;;;;235.75;221.43;;;11.60;99.90;;;;;;5032441;28;20030;-72
2023/12/26 06:07:40;;;;;;;241.25;227.35;;;11.60;99.90;;;;;;5038471;28;20510;-73
2023/12/26 06:10:07;;;;;;;238.80;225.25;;;11.60;99.90;;;;;;5041140;28;20040;-73
2023/12/26 06:12:33;;;;;;;182.68;171.77;;;11.60;99.90;;;;;;5040314;28;20463;-72
2023/12/26 06:14:59;;;;;;;186.25;175.73;;;11.60;99.90;;;;;;5047626;28;20399;-73
2023/12/26 06:17:26;;;;;;;167.55;157.77;;;11.60;99.90;;;;;;5033858;28;20100;-73
2023/12/26 06:19:52;;;;;;;171.57;161.35;;;11.50;99.90;;;;;;5046691;28;20048;-73
2023/12/26 06:22:18;;;;;;;177.35;166.70;;;11.60;99.90;;;;;;5040830;28;20056;-73
2023/12/26 06:24:44;;;;;;;176.48;166.60;;;11.60;99.90;;;;;;5034739;28;20056;-73
2023/12/26 06:27:10;;;;;;;188.05;176.90;;;11.60;99.90;;;;;;5044779;28;20041;-73
2023/12/26 06:29:36;;;;;;;207.63;194.35;;;11.70;99.90;;;;;;5042253;28;20025;-73
2023/12/26 06:32:03;;;;;;;213.50;201.13;;;11.70;99.90;;;;;;5031938;28;20442;-72
2023/12/26 06:34:29;;;;;;;233.13;216.77;;;11.70;99.90;;;;;;5047385;28;20029;-73
2023/12/26 06:36:55;;;;;;;216.43;203.75;;;11.70;99.90;;;;;;5031745;28;20041;-73
2023/12/26 06:39:21;;;;;;;226.30;212.88;;;11.70;99.90;;;;;;5032027;28;20387;-72
2023/12/26 06:41:47;;;;;;;225.00;211.93;;;11.60;99.90;;;;;;5041863;28;20041;-73
2023/12/26 06:44:13;;;;;;;228.98;215.63;;;11.60;99.90;;;;;;5043597;28;20064;-73
2023/12/26 06:46:42;;;;;;;170.57;160.23;;;11.50;99.90;;;;;;5034825;28;20041;-73
2023/12/26 06:49:09;;;;;;;198.95;187.00;;;11.60;99.90;;;;;;5031070;28;20041;-73
2023/12/26 06:51:39;;;;;;;127.32;119.15;;;11.60;99.90;;;;;;5032329;28;20032;-73
2023/12/26 06:54:05;;;;;;;162.27;152.00;;;11.60;99.90;;;;;;5031290;28;20492;-73
2023/12/26 06:56:31;;;;;;;169.85;159.95;;;11.50;99.90;;;;;;5031295;28;20037;-73
2023/12/26 06:58:58;;;;;;;135.35;127.20;;;11.50;99.90;;;;;;5037085;28;20051;-73
2023/12/26 07:01:25;;;;;;;144.18;135.30;;;11.50;99.90;;;;;;5031190;28;20042;-73
2023/12/26 07:03:51;;;;;;;147.77;138.77;;;11.50;99.90;;;;;;5044422;28;20426;-73
2023/12/26 07:06:17;;;;;;;154.65;145.32;;;11.40;99.90;;;;;;5042029;28;20026;-73
2023/12/26 07:08:43;;;;;;;157.63;148.20;;;11.30;99.90;;;;;;5032718;28;20048;-73
2023/12/26 07:11:09;;;;;;;158.07;148.43;;;11.30;99.90;;;;;;5033071;28;20498;-73
2023/12/26 07:13:35;;;;;;;148.27;139.80;;;11.30;99.90;;;;;;5038012;28;20042;-73
2023/12/26 07:16:01;;;;;;;155.10;145.85;;;11.30;99.90;;;;;;5032690;28;20030;-73
2023/12/26 07:18:27;;;;;;;147.25;138.52;;;11.40;99.90;;;;;;5041124;28;20491;-73
2023/12/26 07:20:54;;;;;;;141.45;132.57;;;11.40;99.90;;;;;;5041595;28;20033;-73
2023/12/26 07:23:20;;;;;;;156.20;146.27;;;11.30;99.90;;;;;;5036461;28;20045;-73
2023/12/26 07:25:46;;;;;;;155.73;145.70;;;11.30;99.90;;;;;;5040067;28;20037;-73
2023/12/26 07:28:14;;;;;;;135.90;127.85;;;11.40;99.90;;;;;;5046206;28;20040;-73
2023/12/26 07:30:40;;;;;;;131.20;122.70;;;11.30;99.90;;;;;;5045968;28;20033;-72
2023/12/26 07:33:06;;;;;;;128.48;120.63;;;11.40;99.90;;;;;;5051840;28;20037;-72
2023/12/26 07:35:36;;;;;;;128.88;121.15;;;11.40;99.90;;;;;;5054657;28;20056;-72
2023/12/26 07:38:02;;;;;;;140.27;131.68;;;11.40;99.90;;;;;;5054447;28;20037;-72
2023/12/26 07:40:30;;;;;;;140.45;131.90;;;11.30;99.90;;;;;;5052325;28;20372;-73
2023/12/26 07:42:57;;;;;;;131.38;123.50;;;11.30;99.90;;;;;;5052062;28;20045;-73
2023/12/26 07:45:24;;;;;;;128.63;120.50;;;11.30;99.90;;;;;;5034506;28;20061;-72
2023/12/26 07:47:51;;;;;;;133.63;125.53;;;11.30;99.90;;;;;;5054055;28;20048;-73
2023/12/26 07:50:17;;;;;;;185.05;174.18;;;11.30;99.90;;;;;;5045128;28;20490;-73
2023/12/26 07:52:44;;;;;;;140.07;131.70;;;11.40;99.90;;;;;;5048011;28;20036;-73
2023/12/26 07:55:11;;;;;;;140.82;132.65;;;11.40;99.90;;;;;;5038719;28;20045;-72
2023/12/26 07:57:37;;;;;;;144.55;136.02;;;11.30;99.90;;;;;;5047253;28;20036;-73
2023/12/26 08:00:04;;;;;;;157.63;148.38;;;11.30;99.90;;;;;;5045292;28;20391;-73
2023/12/26 08:02:30;;;;;;;136.45;128.52;;;11.30;99.90;;;;;;5038474;28;20050;-72
2023/12/26 08:04:56;;;;;;;139.43;131.07;;;11.30;99.90;;;;;;5037025;28;20030;-73
2023/12/26 08:07:23;;;;;;;210.57;186.68;;;11.30;99.90;;;;;;5040154;28;20324;-72
2023/12/26 08:09:49;;;;;;;144.35;135.55;;;11.30;99.90;;;;;;5045028;28;20032;-73
2023/12/26 08:12:15;;;;;;;164.18;154.25;;;11.50;99.90;;;;;;5040343;28;20041;-73
2023/12/26 08:14:41;;;;;;;147.82;139.02;;;11.50;99.90;;;;;;5039774;28;20017;-74
2023/12/26 08:17:07;;;;;;;163.32;153.73;;;11.50;99.90;;;;;;5045248;28;20045;-74
2023/12/26 08:19:33;;;;;;;160.38;150.73;;;11.40;99.90;;;;;;5038775;28;20048;-74
2023/12/26 08:21:59;;;;;;;164.80;154.82;;;11.40;99.90;;;;;;5036692;28;20097;-74
2023/12/26 08:24:25;;;;;;;159.30;149.48;;;11.50;99.90;;;;;;5042760;28;20499;-74
2023/12/26 08:26:53;;;;;;;153.70;145.05;;;11.50;99.90;;;;;;5050118;28;20029;-74
2023/12/26 08:29:20;;;;;;;160.07;148.68;;;11.50;99.90;;;;;;5031301;28;20049;-74
2023/12/26 08:31:46;;;;;;;221.57;206.90;;;11.60;99.90;;;;;;5044092;28;20057;-74
2023/12/26 08:34:13;;;;;;;261.27;245.35;;;11.60;99.90;;;;;;5041305;28;20045;-73
2023/12/26 08:36:39;;;;;;;286.95;269.15;;;11.60;99.90;;;;;;5036044;28;20025;-74
2023/12/26 08:39:05;;;;;;;163.82;154.18;;;11.60;99.90;;;;;;5034312;28;20037;-75
2023/12/26 08:41:31;;;;;;;273.00;255.77;;;11.60;99.90;;;;;;5040320;28;20392;-74
2023/12/26 08:43:57;;;;;;;274.00;256.65;;;11.70;99.90;;;;;;5036931;28;20048;-75
2023/12/26 08:46:23;;;;;;;187.27;174.40;;;11.90;99.90;;;;;;5041622;28;20050;-75
2023/12/26 08:48:49;;;;;;;186.27;175.02;;;12.00;99.90;;;;;;5035359;28;20032;-75
2023/12/26 08:51:16;;;;;;;235.40;220.93;;;12.10;99.90;;;;;;5038932;28;20033;-75
2023/12/26 08:53:42;;;;;;;185.77;174.20;;;12.20;99.90;;;;;;5040016;28;20368;-74
2023/12/26 08:56:08;;;;;;;169.85;159.20;;;12.20;99.90;;;;;;5040072;28;20029;-73
2023/12/26 08:58:34;;;;;;;183.32;172.57;;;12.30;99.90;;;;;;5032188;28;20037;-71
2023/12/26 09:01:01;;;;;;;256.65;240.80;;;12.30;99.90;;;;;;5021039;28;20052;-72
2023/12/26 09:03:27;;;;;;;209.02;197.10;;;12.40;99.90;;;;;;5040622;28;20072;-73
2023/12/26 09:05:54;;;;;;;214.85;201.27;;;12.50;99.90;;;;;;5039148;28;20036;-73
2023/12/26 09:08:20;;;;;;;257.52;242.05;;;12.60;99.90;;;;;;5042657;28;20395;-73
2023/12/26 09:10:46;;;;;;;201.65;188.68;;;12.60;99.90;;;;;;5039208;28;20060;-72
2023/12/26 09:13:12;;;;;;;176.05;165.70;;;12.60;99.90;;;;;;5043425;28;20395;-72
2023/12/26 09:15:39;;;;;;;151.07;141.90;;;12.60;99.90;;;;;;5043212;28;20137;-72
2023/12/26 09:18:05;;;;;;;337.73;316.65;;;12.60;99.90;;;;;;5049476;28;20021;-72
2023/12/26 09:20:31;;;;;;;263.17;242.93;;;12.60;99.90;;;;;;5032419;28;20041;-71
2023/12/26 09:22:57;;;;;;;222.55;206.82;;;12.70;99.90;;;;;;5035453;28;20029;-73
2023/12/26 09:25:23;;;;;;;347.75;323.27;;;12.80;99.90;;;;;;5045448;28;20043;-71
2023/12/26 09:27:49;;;;;;;235.50;221.65;;;12.80;99.90;;;;;;5040614;28;20036;-72
2023/12/26 09:30:17;;;;;;;184.68;174.20;;;12.90;99.90;;;;;;5040322;28;20044;-72
2023/12/26 09:32:43;;;;;;;232.15;219.45;;;12.80;99.90;;;;;;5041807;28;20051;-72
2023/12/26 09:35:09;;;;;;;214.90;203.05;;;12.80;99.90;;;;;;5044692;28;20029;-71
2023/12/26 09:37:38;;;;;;;200.88;189.23;;;12.70;99.90;;;;;;5036851;28;20030;-72
2023/12/26 09:40:08;;;;;;;189.32;178.85;;;12.70;99.90;;;;;;5044962;28;20036;-72
2023/12/26 09:42:34;;;;;;;265.55;250.25;;;12.80;99.90;;;;;;5031246;28;20045;-72
2023/12/26 09:45:02;;;;;;;163.25;153.35;;;12.80;99.90;;;;;;5032843;28;20048;-72
2023/12/26 09:47:28;;;;;;;213.68;201.50;;;12.90;99.90;;;;;;5035744;28;20396;-71
2023/12/26 09:49:54;;;;;;;275.25;258.90;;;12.90;99.90;;;;;;5033808;28;20025;-71
2023/12/26 09:52:21;;;;;;;183.52;172.77;;;13.00;99.90;;;;;;5037392;28;20037;-71
2023/12/26 09:54:47;;;;;;;188.85;178.38;;;13.10;99.90;;;;;;5051163;28;20029;-70
2023/12/26 09:57:13;;;;;;;254.50;240.27;;;13.10;99.90;;;;;;5035361;28;20034;-70
2023/12/26 09:59:40;;;;;;;212.73;200.80;;;13.10;99.90;;;;;;5031064;28;20034;-80
2023/12/26 10:02:10;;;;;;;223.30;211.05;;;13.20;99.90;;;;;;5032492;28;20045;-78
2023/12/26 10:04:36;;;;;;;279.57;263.97;;;13.20;99.90;;;;;;5016630;28;20037;-75
2023/12/26 10:07:02;;;;;;;228.32;214.73;;;13.20;99.90;;;;;;5041616;28;20025;-80
2023/12/26 10:09:28;;;;;;;235.25;221.07;;;13.30;99.90;;;;;;5040829;28;20522;-78
2023/12/26 10:11:54;;;;;;;240.18;225.85;;;13.40;99.90;;;;;;5043747;28;20036;-76
2023/12/26 10:14:30;;;;;;;245.13;231.05;;;13.40;99.90;;;;;;5041052;28;20048;-79
2023/12/26 10:16:56;;;;;;;231.52;218.02;;;13.50;99.90;;;;;;5036612;28;20036;-78
2023/12/26 10:19:23;;;;;;;283.45;267.83;;;13.50;99.90;;;;;;5044981;28;20029;-79
2023/12/26 10:21:52;;;;;;;250.82;236.70;;;13.60;99.90;;;;;;5044783;28;20036;-78
2023/12/26 10:24:18;;;;;;;266.17;251.73;;;13.60;99.90;;;;;;5034251;28;20044;-78
2023/12/26 10:26:44;;;;;;;308.80;291.65;;;13.60;99.90;;;;;;5031598;28;20025;-79
2023/12/26 10:29:12;;;;;;;236.63;223.75;;;13.70;99.90;;;;;;5031112;28;20045;-79
2023/12/26 10:31:40;;;;;;;236.77;222.82;;;13.60;99.90;;;;;;5019328;28;20046;-78
2023/12/26 10:34:16;;;;;;;284.20;267.67;;;13.60;99.90;;;;;;5035226;28;20040;-79
2023/12/26 10:36:44;;;;;;;413.83;363.00;;;13.60;99.90;;;;;;5039344;28;20037;-78
2023/12/26 10:39:11;;;;;;;460.15;340.50;;;13.60;99.90;;;;;;5029617;28;20513;-74
2023/12/26 10:41:44;;;;;;;877.17;502.98;;;13.70;99.90;;;;;;5035887;28;20029;-78
2023/12/26 10:44:10;;;;;;;344.25;323.65;;;13.70;99.90;;;;;;5038395;28;20056;-78
2023/12/26 10:46:36;;;;;;;1999.90;999.90;;;13.80;99.90;;;;;;5039191;28;20038;-77
2023/12/26 10:49:06;;;;;;;369.83;348.13;;;13.80;99.90;;;;;;5031855;28;20044;-78
2023/12/26 10:51:32;;;;;;;1999.90;999.90;;;13.90;99.90;;;;;;5035849;28;20037;-78
2023/12/26 10:54:07;;;;;;;723.70;461.40;;;13.90;99.90;;;;;;5037558;28;20411;-78
2023/12/26 10:56:33;;;;;;;1158.43;649.83;;;13.90;99.90;;;;;;5045852;28;20047;-73
2023/12/26 10:59:00;;;;;;;1999.90;999.90;;;14.00;99.90;;;;;;5035730;28;20037;-75
2023/12/26 13:53:31;;;;;;;1999.90;999.90;;;16.10;99.90;;;;;;5041006;28;20049;-73
2023/12/26 13:55:57;;;;;;;1999.90;999.90;;;16.10;99.90;;;;;;5045197;28;20440;-72
2023/12/26 13:58:23;;;;;;;1999.90;999.90;;;16.20;99.90;;;;;;5049321;28;20036;-72
2023/12/26 14:00:49;;;;;;;1999.90;999.90;;;16.10;99.90;;;;;;5038885;28;20029;-72
2023/12/26 14:03:15;;;;;;;1999.90;999.90;;;15.90;99.90;;;;;;5045353;28;20048;-71
2023/12/26 14:05:41;;;;;;;1999.90;999.90;;;15.90;99.90;;;;;;5034262;28;20472;-73
2023/12/26 14:08:08;;;;;;;1999.90;999.90;;;15.80;99.90;;;;;;5032218;28;20033;-72
2023/12/26 14:10:34;;;;;;;1999.90;999.90;;;15.70;99.90;;;;;;5038652;28;20091;-72
2023/12/26 14:13:00;;;;;;;1999.90;999.90;;;15.70;99.90;;;;;;5050019;28;20502;-72
2023/12/26 14:15:26;;;;;;;1999.90;999.90;;;15.70;99.90;;;;;;5038469;28;20040;-72
2023/12/26 14:17:52;;;;;;;1999.90;999.90;;;15.80;99.90;;;;;;5038016;28;20041;-72
2023/12/26 14:20:18;;;;;;;1999.90;999.90;;;15.90;99.90;;;;;;5035300;28;20056;-72
2023/12/26 14:22:44;;;;;;;1999.90;999.90;;;15.90;99.90;;;;;;5032092;28;20040;-72
2023/12/26 14:25:10;;;;;;;1999.90;999.90;;;16.00;99.90;;;;;;5032603;28;20484;-72
2023/12/26 14:27:37;;;;;;;1999.90;999.90;;;16.00;99.90;;;;;;5031816;28;20034;-73
2023/12/26 14:30:04;;;;;;;1999.90;999.90;;;15.90;99.90;;;;;;5041113;28;20479;-72
2023/12/26 14:32:30;;;;;;;1999.90;999.90;;;15.90;99.90;;;;;;5044241;28;20475;-72
2023/12/26 14:34:56;;;;;;;1999.90;999.90;;;15.80;99.90;;;;;;5031997;28;20026;-72
2023/12/26 14:37:22;;;;;;;1999.90;999.90;;;15.80;99.90;;;;;;5034889;28;20395;-72
2023/12/26 14:39:48;;;;;;;1999.90;999.90;;;15.70;99.90;;;;;;5042287;28;20035;-73
2023/12/26 14:42:14;;;;;;;1999.90;999.90;;;15.70;99.90;;;;;;5036629;28;20040;-72
2023/12/26 14:44:40;;;;;;;1999.90;999.90;;;15.70;99.90;;;;;;5041506;28;20072;-72
2023/12/26 14:47:06;;;;;;;1999.90;999.90;;;15.70;99.90;;;;;;5040000;28;20048;-72
2023/12/26 14:49:32;;;;;;;1999.90;999.90;;;15.70;99.90;;;;;;5035293;28;20029;-72
2023/12/26 14:51:59;;;;;;;1999.90;999.90;;;15.60;99.90;;;;;;5031931;28;20365;-72
2023/12/26 14:54:25;;;;;;;1999.90;999.90;;;15.60;99.90;;;;;;5032605;28;20025;-72